createdAt,value
2018-01-25T00:01:28.015Z,98379.39
2018-01-25T00:03:56.355Z,98380.59
2018-01-25T00:06:24.664Z,98379.85
2018-01-25T00:08:53.612Z,98378.23
2018-01-25T00:11:22.064Z,98374.59
2018-01-25T00:13:50.363Z,98376.06
2018-01-25T00:16:19.424Z,98376.33
2018-01-25T00:18:48.351Z,98374.89
2018-01-25T00:21:16.660Z,98371.26
2018-01-25T00:23:44.956Z,98372.00
2018-01-25T00:26:13.555Z,98372.70
2018-01-25T00:28:41.969Z,98367.43
2018-01-25T00:31:10.571Z,98370.87
2018-01-25T00:33:39.562Z,98359.89
2018-01-25T00:36:07.854Z,98365.00
2018-01-25T00:38:36.300Z,98368.52
2018-01-25T00:41:04.651Z,98361.51
2018-01-25T00:43:33.540Z,98372.77
2018-01-25T00:46:01.843Z,98369.83
2018-01-25T00:48:30.468Z,98369.35
2018-01-25T00:50:58.772Z,98373.77
2018-01-25T00:53:27.082Z,98367.07
2018-01-25T00:55:56.195Z,98374.59
2018-01-25T00:58:24.508Z,98372.86
2018-01-25T01:00:54.748Z,98372.02
2018-01-25T01:03:23.752Z,98370.29
2018-01-25T01:05:52.053Z,98371.18
2018-01-25T01:08:20.351Z,98369.11
2018-01-25T01:10:48.703Z,98370.70
2018-01-25T01:13:17.084Z,98372.05
2018-01-25T01:15:45.956Z,98370.50
2018-01-25T01:18:14.316Z,98378.70
2018-01-25T01:20:42.630Z,98379.72
2018-01-25T01:23:10.939Z,98381.35
2018-01-25T01:25:39.319Z,98375.12
2018-01-25T01:28:08.151Z,98374.91
2018-01-25T01:30:36.663Z,98374.23
2018-01-25T01:33:05.267Z,98379.70
2018-01-25T01:35:34.327Z,98381.14
2018-01-25T01:38:02.706Z,98375.12
2018-01-25T01:40:31.228Z,98377.17
2018-01-25T01:42:59.532Z,98380.34
2018-01-25T01:45:27.609Z,98385.16
2018-01-25T01:47:55.975Z,98378.84
2018-01-25T01:50:24.276Z,98377.96
2018-01-25T01:52:52.646Z,98381.67
2018-01-25T01:55:20.967Z,98379.97
2018-01-25T01:57:50.037Z,98377.34
2018-01-25T02:00:18.376Z,98365.98
2018-01-25T02:02:46.679Z,98368.77
2018-01-25T02:05:14.975Z,98360.85
2018-01-25T02:07:43.302Z,98361.23
2018-01-25T02:10:11.599Z,98355.31
2018-01-25T02:12:39.961Z,98358.99
2018-01-25T02:15:08.304Z,98353.77
2018-01-25T02:17:36.625Z,98357.72
2018-01-25T02:20:05.909Z,98365.22
2018-01-25T02:22:34.211Z,98368.89
2018-01-25T02:25:02.512Z,98365.98
2018-01-25T02:27:30.852Z,98362.66
2018-01-25T02:29:59.268Z,98360.44
2018-01-25T02:32:28.013Z,98357.44
2018-01-25T02:34:56.511Z,98357.42
2018-01-25T02:37:25.074Z,98353.14
2018-01-25T02:39:53.375Z,98346.16
2018-01-25T02:42:21.716Z,98342.97
2018-01-25T02:44:50.556Z,98344.52
2018-01-25T02:47:18.867Z,98338.81
2018-01-25T02:49:47.224Z,98338.90
2018-01-25T02:52:15.524Z,98335.67
2018-01-25T02:54:43.826Z,98338.48
2018-01-25T02:57:12.156Z,98337.56
2018-01-25T02:59:40.459Z,98336.95
2018-01-25T03:02:09.052Z,98344.05
2018-01-25T03:04:37.350Z,98340.32
2018-01-25T03:07:05.652Z,98340.23
2018-01-25T03:09:34.146Z,98341.30
2018-01-25T03:12:02.439Z,98347.41
2018-01-25T03:14:30.750Z,98341.66
2018-01-25T03:17:01.944Z,98345.10
2018-01-25T03:19:30.251Z,98338.84
2018-01-25T03:21:58.695Z,98341.00
2018-01-25T03:24:27.019Z,98343.78
2018-01-25T03:26:55.319Z,98338.16
2018-01-25T03:29:23.703Z,98334.77
2018-01-25T03:31:52.447Z,98338.20
2018-01-25T03:34:21.587Z,98340.63
2018-01-25T03:36:49.919Z,98344.87
2018-01-25T03:39:18.983Z,98343.00
2018-01-25T03:41:48.196Z,98349.78
2018-01-25T03:57:05.223Z,98345.80
2018-01-25T03:59:34.275Z,98343.18
2018-01-25T04:02:03.379Z,98344.92
2018-01-25T04:04:31.715Z,98334.16
2018-01-25T04:07:00.012Z,98331.12
2018-01-25T04:09:28.911Z,98326.70
2018-01-25T04:11:57.496Z,98327.13
2018-01-25T04:14:25.797Z,98335.20
2018-01-25T04:16:54.092Z,98333.83
2018-01-25T04:19:23.208Z,98332.69
2018-01-25T04:21:51.508Z,98328.28
2018-01-25T04:24:20.160Z,98333.87
2018-01-25T04:26:48.503Z,98324.85
2018-01-25T04:29:17.003Z,98322.69
2018-01-25T04:31:45.368Z,98327.78
2018-01-25T04:34:14.105Z,98325.31
2018-01-25T04:36:42.424Z,98328.36
2018-01-25T04:39:11.416Z,98335.20
2018-01-25T04:41:39.787Z,98328.94
2018-01-25T04:44:08.091Z,98323.80
2018-01-25T04:46:36.391Z,98322.80
2018-01-25T04:49:05.304Z,98325.39
2018-01-25T04:51:33.611Z,98323.54
2018-01-25T04:54:01.908Z,98320.75
2018-01-25T04:56:30.371Z,98315.03
2018-01-25T04:58:59.259Z,98319.75
2018-01-25T05:01:27.660Z,98316.71
2018-01-25T05:03:56.023Z,98314.88
2018-01-25T05:06:24.532Z,98311.70
2018-01-25T05:08:52.832Z,98308.73
2018-01-25T05:11:21.167Z,98303.70
2018-01-25T05:13:49.872Z,98298.81
2018-01-25T05:16:18.173Z,98300.23
2018-01-25T05:18:47.011Z,98303.80
2018-01-25T05:21:15.880Z,98305.34
2018-01-25T05:23:44.195Z,98303.25
2018-01-25T05:26:12.853Z,98306.54
2018-01-25T05:28:41.175Z,98299.66
2018-01-25T05:31:09.476Z,98297.64
2018-01-25T05:33:37.844Z,98298.48
2018-01-25T05:36:06.144Z,98295.58
2018-01-25T05:38:35.219Z,98291.80
2018-01-25T05:41:04.774Z,98290.00
2018-01-25T05:43:33.081Z,98287.61
2018-01-25T05:46:01.391Z,98295.86
2018-01-25T05:48:29.728Z,98289.61
2018-01-25T05:50:58.027Z,98289.80
2018-01-25T05:53:26.327Z,98292.09
2018-01-25T05:55:55.056Z,98282.77
2018-01-25T05:58:24.251Z,98288.91
2018-01-25T06:00:52.553Z,98290.81
2018-01-25T06:03:21.621Z,98291.59
2018-01-25T06:05:49.931Z,98288.27
2018-01-25T06:08:19.331Z,98290.33
2018-01-25T06:10:48.358Z,98289.64
2018-01-25T06:13:16.677Z,98291.78
2018-01-25T06:15:44.979Z,98291.28
2018-01-25T06:18:13.701Z,98294.58
2018-01-25T06:20:42.665Z,98290.62
2018-01-25T06:23:11.056Z,98290.11
2018-01-25T06:25:39.371Z,98297.39
2018-01-25T06:28:07.831Z,98291.77
2018-01-25T06:30:36.173Z,98287.75
2018-01-25T06:33:05.240Z,98290.33
2018-01-25T06:35:33.596Z,98289.12
2018-01-25T06:38:03.390Z,98292.20
2018-01-25T06:40:31.697Z,98291.55
2018-01-25T06:43:00.715Z,98289.41
2018-01-25T06:45:29.020Z,98291.81
2018-01-25T06:47:57.776Z,98300.92
2018-01-25T06:50:26.152Z,98299.44
2018-01-25T06:52:54.446Z,98297.31
2018-01-25T06:55:23.195Z,98298.63
2018-01-25T06:57:52.736Z,98289.39
2018-01-25T07:00:21.800Z,98292.73
2018-01-25T07:02:50.200Z,98294.55
2018-01-25T07:05:18.500Z,98296.31
2018-01-25T07:07:46.836Z,98290.98
2018-01-25T07:10:15.842Z,98293.27
2018-01-25T07:12:44.138Z,98285.56
2018-01-25T07:15:12.439Z,98283.89
2018-01-25T07:17:40.786Z,98290.11
2018-01-25T07:20:12.552Z,98287.85
2018-01-25T07:22:42.146Z,98287.73
2018-01-25T07:25:10.338Z,98284.50
2018-01-25T07:27:39.640Z,98281.88
2018-01-25T07:30:08.700Z,98279.58
2018-01-25T07:32:37.043Z,98276.14
2018-01-25T07:35:05.388Z,98284.53
2018-01-25T07:37:33.651Z,98278.92
2018-01-25T07:40:04.328Z,98281.72
2018-01-25T07:42:32.639Z,98280.42
2018-01-25T07:45:00.942Z,98278.87
2018-01-25T07:47:29.283Z,98280.78
2018-01-25T07:49:57.604Z,98283.12
2018-01-25T07:52:26.676Z,98281.44
2018-01-25T07:54:55.395Z,98283.52
2018-01-25T08:00:27.751Z,98276.16
2018-01-25T08:02:56.443Z,98274.56
2018-01-25T08:05:24.740Z,98275.07
2018-01-25T08:07:53.184Z,98268.69
2018-01-25T08:10:21.899Z,98271.10
2018-01-25T08:12:50.703Z,98272.28
2018-01-25T08:15:19.391Z,98271.07
2018-01-25T08:17:47.879Z,98269.45
2018-01-25T08:20:16.752Z,98270.01
2018-01-25T08:22:45.279Z,98268.28
2018-01-25T08:25:14.236Z,98267.41
2018-01-25T08:27:43.303Z,98267.80
2018-01-25T08:30:11.871Z,98268.08
2018-01-25T08:32:40.176Z,98268.55
2018-01-25T08:35:08.484Z,98271.84
2018-01-25T08:37:36.856Z,98263.69
2018-01-25T08:40:05.798Z,98265.72
2018-01-25T08:42:34.098Z,98268.09
2018-01-25T08:45:02.404Z,98267.62
2018-01-25T08:47:31.352Z,98268.49
2018-01-25T08:49:59.647Z,98268.69
2018-01-25T08:52:27.965Z,98267.69
2018-01-25T08:54:56.319Z,98264.95
2018-01-25T08:57:24.627Z,98270.50
2018-01-25T08:59:52.948Z,98270.64
2018-01-25T09:02:22.095Z,98273.67
2018-01-25T09:04:50.407Z,98272.14
2018-01-25T09:07:18.735Z,98271.83
2018-01-25T09:09:47.388Z,98274.28
2018-01-25T09:12:15.687Z,98271.87
2018-01-25T09:14:44.100Z,98266.31
2018-01-25T09:17:12.512Z,98269.34
2018-01-25T09:19:41.035Z,98266.50
2018-01-25T09:22:09.347Z,98270.22
2018-01-25T09:24:38.107Z,98263.01
2018-01-25T09:27:06.463Z,98270.37
2018-01-25T09:29:36.555Z,98272.02
2018-01-25T09:32:04.863Z,98272.47
2018-01-25T09:34:33.316Z,98271.65
2018-01-25T09:37:01.916Z,98276.81
2018-01-25T09:39:30.223Z,98272.55
2018-01-25T09:41:58.547Z,98271.25
2018-01-25T09:44:26.987Z,98269.38
2018-01-25T09:46:55.287Z,98272.69
2018-01-25T09:49:23.604Z,98266.80
2018-01-25T09:51:52.210Z,98265.34
2018-01-25T09:54:20.558Z,98265.88
2018-01-25T09:56:48.865Z,98259.20
2018-01-25T09:59:20.171Z,98259.26
2018-01-25T10:01:49.383Z,98260.31
2018-01-25T10:04:17.688Z,98263.37
2018-01-25T10:06:46.752Z,98258.72
2018-01-25T10:09:15.079Z,98258.87
2018-01-25T10:11:44.059Z,98248.58
2018-01-25T10:14:13.272Z,98249.70
2018-01-25T10:16:41.736Z,98249.05
2018-01-25T10:19:10.040Z,98258.22
2018-01-25T10:21:38.876Z,98262.31
2018-01-25T10:24:07.196Z,98261.72
2018-01-25T10:26:36.547Z,98255.47
2018-01-25T10:29:05.344Z,98251.94
2018-01-25T10:31:33.844Z,98248.56
2018-01-25T10:34:02.152Z,98250.74
2018-01-25T10:36:30.742Z,98245.24
2018-01-25T10:38:59.055Z,98239.98
2018-01-25T10:41:28.269Z,98236.22
2018-01-25T10:43:56.567Z,98230.27
2018-01-25T10:46:25.064Z,98228.58
2018-01-25T10:48:53.862Z,98227.09
2018-01-25T10:51:22.295Z,98220.73
2018-01-25T10:53:50.607Z,98213.21
2018-01-25T10:56:18.948Z,98212.64
2018-01-25T10:58:48.856Z,98202.23
2018-01-25T11:01:23.008Z,98199.73
2018-01-25T11:03:51.567Z,98192.59
2018-01-25T11:06:19.883Z,98189.12
2018-01-25T11:08:48.190Z,98183.11
2018-01-25T11:11:16.952Z,98183.08
2018-01-25T11:13:45.567Z,98176.04
2018-01-25T11:16:14.075Z,98177.22
2018-01-25T11:18:43.155Z,98179.66
2018-01-25T11:21:11.748Z,98175.40
2018-01-25T11:23:43.023Z,98176.33
2018-01-25T11:26:11.999Z,98175.52
2018-01-25T11:28:40.312Z,98175.37
2018-01-25T11:31:08.912Z,98168.25
2018-01-25T11:33:37.226Z,98171.91
2018-01-25T11:36:05.527Z,98175.28
2018-01-25T11:38:35.031Z,98170.61
2018-01-25T11:41:04.128Z,98166.58
2018-01-25T11:43:33.039Z,98156.80
2018-01-25T11:46:01.611Z,98151.45
2018-01-25T11:48:30.951Z,98144.98
2018-01-25T11:51:00.688Z,98133.09
2018-01-25T11:53:29.727Z,98140.10
2018-01-25T11:55:58.832Z,98139.84
2018-01-25T11:58:27.912Z,98135.62
2018-01-25T12:00:56.200Z,98129.19
2018-01-25T12:03:25.260Z,98132.45
2018-01-25T12:05:54.347Z,98124.06
2018-01-25T12:08:22.656Z,98121.53
2018-01-25T12:10:51.719Z,98116.72
2018-01-25T12:13:20.028Z,98112.70
2018-01-25T12:15:48.331Z,98107.64
2018-01-25T12:18:16.751Z,98102.03
2018-01-25T12:20:45.522Z,98092.94
2018-01-25T12:23:14.144Z,98103.08
2018-01-25T12:25:44.809Z,98096.37
2018-01-25T12:28:13.151Z,98090.39
2018-01-25T12:30:41.499Z,98095.45
2018-01-25T12:33:10.305Z,98086.39
2018-01-25T12:35:38.679Z,98078.95
2018-01-25T12:38:07.667Z,98076.89
2018-01-25T12:40:36.012Z,98078.27
2018-01-25T12:43:04.311Z,98073.70
2018-01-25T12:45:33.344Z,98062.52
2018-01-25T12:48:01.642Z,98060.73
2018-01-25T12:50:30.978Z,98053.41
2018-01-25T12:53:00.359Z,98061.50
2018-01-25T12:55:29.539Z,98055.29
2018-01-25T12:57:57.844Z,98048.97
2018-01-25T13:00:26.963Z,98053.30
2018-01-25T13:02:55.260Z,98050.19
2018-01-25T13:05:23.647Z,98045.09
2018-01-25T13:07:52.000Z,98036.92
2018-01-25T13:10:20.592Z,98034.81
2018-01-25T13:12:49.991Z,98034.50
2018-01-25T13:15:19.119Z,98035.19
2018-01-25T13:17:47.819Z,98026.44
2018-01-25T13:20:16.275Z,98021.47
2018-01-25T13:22:45.492Z,98020.32
2018-01-25T13:25:13.811Z,98023.36
2018-01-25T13:27:43.443Z,98014.13
2018-01-25T13:30:14.238Z,98021.75
2018-01-25T13:32:43.508Z,98017.73
2018-01-25T13:35:12.656Z,98018.83
2018-01-25T13:37:41.052Z,98013.27
2018-01-25T13:40:09.717Z,98010.61
2018-01-25T13:42:38.299Z,98012.83
2018-01-25T13:45:06.607Z,98006.63
2018-01-25T13:47:34.955Z,97996.09
2018-01-25T13:50:03.307Z,97993.62
2018-01-25T13:52:37.320Z,97992.11
2018-01-25T13:55:05.624Z,97999.56
2018-01-25T13:57:33.934Z,97995.54
2018-01-25T14:00:02.908Z,97986.38
2018-01-25T14:02:31.212Z,97991.29
2018-01-25T14:04:59.686Z,97995.47
2018-01-25T14:07:28.149Z,97994.17
2018-01-25T14:09:56.688Z,97983.30
2018-01-25T14:12:24.987Z,97985.48
2018-01-25T14:14:53.339Z,97980.63
2018-01-25T14:17:21.691Z,97977.05
2018-01-25T14:19:50.581Z,97965.84
2018-01-25T14:22:18.931Z,97968.36
2018-01-25T14:24:47.420Z,97965.19
2018-01-25T14:27:16.184Z,97970.59
2018-01-25T14:29:44.683Z,97964.70
2018-01-25T14:32:13.440Z,97960.34
2018-01-25T14:34:41.747Z,97955.66
2018-01-25T14:37:10.202Z,97956.94
2018-01-25T14:39:39.111Z,97954.27
2018-01-25T14:42:07.952Z,97960.46
2018-01-25T14:44:37.536Z,97958.52
2018-01-25T14:47:06.131Z,97960.52
2018-01-25T14:49:34.436Z,97957.59
2018-01-25T14:52:03.223Z,97955.34
2018-01-25T14:54:32.023Z,97956.02
2018-01-25T14:57:00.644Z,97955.06
2018-01-25T14:59:28.947Z,97950.73
2018-01-25T15:01:58.016Z,97953.34
2018-01-25T15:04:26.424Z,97955.58
2018-01-25T15:06:54.655Z,97953.72
2018-01-25T15:09:23.119Z,97953.53
2018-01-25T15:11:51.420Z,97946.66
2018-01-25T15:14:19.720Z,97949.55
2018-01-25T15:16:50.191Z,97944.31
2018-01-25T15:19:19.240Z,97954.67
2018-01-25T15:21:48.303Z,97953.20
2018-01-25T15:24:16.504Z,97958.09
2018-01-25T15:26:51.118Z,97961.88
2018-01-25T15:29:19.423Z,97963.46
2018-01-25T15:31:48.497Z,97968.23
2018-01-25T15:34:16.848Z,97969.80
2018-01-25T15:36:47.711Z,97970.59
2018-01-25T15:39:16.067Z,97967.34
2018-01-25T15:41:44.375Z,97967.03
2018-01-25T15:44:12.688Z,97976.34
2018-01-25T15:46:41.045Z,97972.80
2018-01-25T15:49:09.359Z,97965.58
2018-01-25T15:51:37.680Z,97966.95
2018-01-25T15:54:06.274Z,97974.41
2018-01-25T15:56:35.944Z,97979.56
2018-01-25T15:59:04.578Z,97979.52
2018-01-25T16:01:32.925Z,97974.88
2018-01-25T16:04:02.124Z,97977.86
2018-01-25T16:06:30.681Z,97977.55
2018-01-25T16:08:59.024Z,97979.55
2018-01-25T16:11:27.451Z,97980.48
2018-01-25T16:13:55.787Z,97976.34
2018-01-25T16:16:24.100Z,97973.06
2018-01-25T16:18:52.508Z,97977.84
2018-01-25T16:21:21.108Z,97970.22
2018-01-25T16:23:49.407Z,97967.94
2018-01-25T16:26:17.771Z,97964.43
2018-01-25T16:28:46.080Z,97966.52
2018-01-25T16:31:15.635Z,97956.59
2018-01-25T16:33:43.833Z,97956.92
2018-01-25T16:36:12.148Z,97962.19
2018-01-25T16:38:40.461Z,97960.02
2018-01-25T16:41:09.397Z,97960.02
2018-01-25T16:43:37.696Z,97962.89
2018-01-25T16:46:06.008Z,97959.64
2018-01-25T16:48:34.820Z,97956.28
2018-01-25T16:51:03.139Z,97958.91
2018-01-25T16:53:31.444Z,97958.08
2018-01-25T16:56:00.924Z,97960.05
2018-01-25T16:58:29.781Z,97963.14
2018-01-25T17:00:58.888Z,97962.84
2018-01-25T17:03:28.687Z,97963.48
2018-01-25T17:05:57.215Z,97966.63
2018-01-25T17:08:25.561Z,97965.28
2018-01-25T17:10:53.907Z,97967.23
2018-01-25T17:13:23.362Z,97970.96
2018-01-25T17:15:51.879Z,97973.63
2018-01-25T17:18:21.119Z,97974.31
2018-01-25T17:20:50.412Z,97973.58
2018-01-25T17:23:18.964Z,97969.67
2018-01-25T17:25:47.419Z,97969.12
2018-01-25T17:28:15.791Z,97979.97
2018-01-25T17:30:44.145Z,97974.80
2018-01-25T17:33:13.199Z,97976.13
2018-01-25T17:35:41.555Z,97982.20
2018-01-25T17:38:10.303Z,97978.48
2018-01-25T17:40:38.891Z,97975.23
2018-01-25T17:43:07.254Z,97982.21
2018-01-25T17:45:35.555Z,97977.25
2018-01-25T17:48:04.364Z,97987.38
2018-01-25T17:50:32.681Z,97983.95
2018-01-25T17:53:01.171Z,97984.18
2018-01-25T17:55:30.316Z,97989.11
2018-01-25T17:57:58.620Z,97990.97
2018-01-25T18:00:27.282Z,97986.72
2018-01-25T18:02:55.774Z,97991.02
2018-01-25T18:05:24.879Z,97988.58
2018-01-25T18:07:53.235Z,97992.03
2018-01-25T18:10:21.593Z,98002.57
2018-01-25T18:12:50.247Z,98002.14
2018-01-25T18:15:18.987Z,98002.84
2018-01-25T18:17:47.807Z,98002.50
2018-01-25T18:20:16.750Z,98007.77
2018-01-25T18:22:45.107Z,98013.86
2018-01-25T18:25:14.414Z,98003.14
2018-01-25T18:27:42.726Z,98002.28
2018-01-25T18:30:11.040Z,98007.78
2018-01-25T18:32:40.080Z,98008.98
2018-01-25T18:35:08.687Z,98007.11
2018-01-25T18:37:37.068Z,98009.00
2018-01-25T18:40:05.418Z,98011.03
2018-01-25T18:42:35.236Z,98017.89
2018-01-25T18:45:04.116Z,98017.08
2018-01-25T18:47:32.419Z,98016.02
2018-01-25T18:50:01.103Z,98014.72
2018-01-25T18:52:29.800Z,98008.47
2018-01-25T18:54:58.146Z,98006.91
2018-01-25T18:57:26.315Z,98022.17
2018-01-25T18:59:54.683Z,98020.65
2018-01-25T19:02:23.034Z,98015.31
2018-01-25T19:04:51.968Z,98013.88
2018-01-25T19:07:20.285Z,98013.06
2018-01-25T19:09:48.643Z,98004.45
2018-01-25T19:12:17.611Z,98006.13
2018-01-25T19:14:47.471Z,98014.48
2018-01-25T19:17:16.131Z,98013.30
2018-01-25T19:19:44.907Z,98015.06
2018-01-25T19:22:13.031Z,98014.00
2018-01-25T19:24:41.396Z,98017.02
2018-01-25T19:27:09.760Z,98013.70
2018-01-25T19:29:38.347Z,98013.44
2018-01-25T19:32:07.100Z,98012.11
2018-01-25T19:34:35.784Z,98016.12
2018-01-25T19:37:04.140Z,98021.41
2018-01-25T19:39:33.203Z,98007.98
2018-01-25T19:42:01.667Z,98018.13
2018-01-25T19:44:30.765Z,98009.69
2018-01-25T19:46:59.130Z,98016.55
2018-01-25T19:49:27.951Z,98005.81
2018-01-25T19:51:56.265Z,97999.40
2018-01-25T19:54:24.618Z,97999.40
2018-01-25T19:56:52.970Z,97999.72
2018-01-25T19:59:22.239Z,97994.23
2018-01-25T20:01:51.327Z,98000.52
2018-01-25T20:04:19.687Z,97999.45
2018-01-25T20:06:48.403Z,97999.06
2018-01-25T20:09:17.191Z,97993.36
2018-01-25T20:11:45.808Z,97990.78
2018-01-25T20:14:14.128Z,97989.48
2018-01-25T20:16:42.848Z,97980.58
2018-01-25T20:19:11.740Z,97976.40
2018-01-25T20:21:40.155Z,97982.31
2018-01-25T20:24:09.102Z,97966.25
2018-01-25T20:26:37.472Z,97952.24
2018-01-25T20:29:05.850Z,97943.95
2018-01-25T20:31:34.408Z,97945.11
2018-01-25T20:34:03.547Z,97959.48
2018-01-25T20:36:31.860Z,97986.84
2018-01-25T20:39:00.250Z,97973.92
2018-01-25T20:41:29.934Z,97987.34
2018-01-25T20:43:58.991Z,97980.39
2018-01-25T20:46:27.511Z,97972.13
2018-01-25T20:48:56.384Z,97975.35
2018-01-25T20:51:24.919Z,97970.42
2018-01-25T20:53:53.243Z,97967.02
2018-01-25T20:56:21.645Z,97969.45
2018-01-25T20:58:50.299Z,97979.20
2018-01-25T21:01:19.140Z,97982.97
2018-01-25T21:03:47.506Z,97977.21
2018-01-25T21:06:15.819Z,97986.65
2018-01-25T21:08:45.301Z,97972.85
2018-01-25T21:11:14.380Z,97971.03
2018-01-25T21:13:42.713Z,97972.66
2018-01-25T21:16:11.155Z,97964.48
2018-01-25T21:18:40.304Z,97964.81
2018-01-25T21:21:09.239Z,97976.48
2018-01-25T21:23:37.699Z,97968.81
2018-01-25T21:26:06.004Z,97976.55
2018-01-25T21:28:34.623Z,97973.63
2018-01-25T21:31:02.974Z,97979.47
2018-01-25T21:33:31.299Z,97976.84
2018-01-25T21:36:00.599Z,97965.63
2018-01-25T21:38:28.912Z,97976.39
2018-01-25T21:40:57.964Z,97975.76
2018-01-25T21:43:26.375Z,97976.07
2018-01-25T21:45:54.730Z,97980.40
2018-01-25T21:48:23.086Z,97984.25
2018-01-25T21:50:51.665Z,97985.89
2018-01-25T21:53:20.054Z,97979.33
2018-01-25T21:55:48.479Z,97980.30
2018-01-25T21:58:17.074Z,97974.74
2018-01-25T22:00:45.383Z,97978.03
2018-01-25T22:03:13.715Z,97974.92
2018-01-25T22:05:42.331Z,97981.06
2018-01-25T22:08:10.736Z,97992.86
2018-01-25T22:10:39.077Z,97982.51
2018-01-25T22:13:07.887Z,97983.41
2018-01-25T22:15:36.691Z,97987.92
2018-01-25T22:18:05.389Z,97984.16
2018-01-25T22:20:33.784Z,97966.91
2018-01-25T22:23:02.111Z,97980.91
2018-01-25T22:25:30.474Z,97976.33
2018-01-25T22:27:58.820Z,97978.16
2018-01-25T22:30:27.891Z,97975.02
2018-01-25T22:32:56.298Z,97973.52
2018-01-25T22:35:24.694Z,97973.25
2018-01-25T22:37:53.049Z,97978.98
2018-01-25T22:40:21.615Z,97978.30
2018-01-25T22:42:50.277Z,97980.79
2018-01-25T22:45:18.598Z,97986.70
2018-01-25T22:47:46.899Z,97985.11
2018-01-25T22:50:15.282Z,97985.85
2018-01-25T22:52:43.916Z,97985.15
2018-01-25T22:55:12.223Z,97986.39
2018-01-25T22:57:40.557Z,97989.61
2018-01-25T23:00:08.864Z,97988.33
2018-01-25T23:02:37.254Z,97988.66
2018-01-25T23:05:05.612Z,97995.20
2018-01-25T23:07:33.958Z,97979.13
2018-01-25T23:10:02.267Z,97972.03
2018-01-25T23:12:30.945Z,97975.22
2018-01-25T23:14:59.301Z,97974.83
2018-01-25T23:17:28.423Z,97978.77
2018-01-25T23:19:56.814Z,97971.16
2018-01-25T23:22:25.115Z,97973.33
2018-01-25T23:24:53.808Z,97974.00
2018-01-25T23:27:22.183Z,97973.56
2018-01-25T23:29:50.487Z,97967.45
2018-01-25T23:32:18.838Z,97965.58
2018-01-25T23:34:47.442Z,97970.72
2018-01-25T23:37:15.774Z,97963.94
2018-01-25T23:39:44.082Z,97962.28
2018-01-25T23:42:12.451Z,97974.16
2018-01-25T23:44:40.755Z,97969.73
2018-01-25T23:47:09.065Z,97970.55
2018-01-25T23:49:37.391Z,97980.40
2018-01-25T23:52:05.700Z,97978.72
2018-01-25T23:54:34.856Z,97982.94
2018-01-25T23:57:03.159Z,97990.16
2018-01-25T23:59:31.475Z,97978.52
